THY73 ZGGG-LTFM
Flight info
| Callsign | THY73 |
|---|---|
| Flight time | N/A |
| Altitude | 32100 |
| Route | AGVIL9 AGVIL W24 OSNOV G586 QP B330 ELKAL W179 IGNAK/K0928S1010 W179 WFX/K0932S0980 W179 OMBON/K0919S1040 W195 VIDEK/K0924S1010 W195 LAXAL/K0917S1040 W195 IDOPA W197 ANDIM B215 IBANO G470 AKLAS W192 FKG A368 SARIN/K0902F340 N161 MADEV/K0898F360 N161 GASBI/N0487F360 N161 LEYLA T916 MATAL M11 TABAS/N0481F380 M11 REBLO UM11 CRM UW71 ILHAN UT97 KANQO |
| Aircraft | B77W/H-SDE1E2E3FGHIJ2J3J4J5M1RWXY/LB1D1 |
Departure
| Time | 2026-04-30 05:28 |
|---|---|
| Airport | Guangzhou Baiyun International Airport (ZGGG) |
Arrival
| Time | N/A |
|---|---|
| Airport | İstanbul Airport (LTFM) |
| Time | Latitude | Longitude | Altitude | Speed | Heading |
|---|---|---|---|---|---|
| 2026-04-30 05:07 | 23.40163 | 113.30228 | 63 ft | 0 kts | 194° |
| 2026-04-30 05:16 | 23.40165 | 113.30228 | 63 ft | 1 kts | 194° |
| 2026-04-30 05:17 | 23.40181 | 113.30233 | 72 ft | 3 kts | 194° |
| 2026-04-30 05:17 | 23.40201 | 113.30238 | 49 ft | 3 kts | 194° |
| 2026-04-30 05:17 | 23.40216 | 113.30242 | 54 ft | 2 kts | 192° |
| 2026-04-30 05:17 | 23.40233 | 113.30244 | 54 ft | 3 kts | 152° |
| 2026-04-30 05:18 | 23.40245 | 113.30231 | 54 ft | 3 kts | 109° |
| 2026-04-30 05:18 | 23.40250 | 113.30210 | 56 ft | 2 kts | 103° |
| 2026-04-30 05:18 | 23.40251 | 113.30205 | 57 ft | 2 kts | 104° |
| 2026-04-30 05:21 | 23.40236 | 113.30272 | 54 ft | 11 kts | 99° |
| 2026-04-30 05:21 | 23.40259 | 113.30361 | 54 ft | 18 kts | 56° |
| 2026-04-30 05:22 | 23.40349 | 113.30479 | 57 ft | 20 kts | 62° |
| 2026-04-30 05:22 | 23.40332 | 113.30629 | 56 ft | 20 kts | 102° |
| 2026-04-30 05:22 | 23.40300 | 113.30779 | 56 ft | 20 kts | 104° |
| 2026-04-30 05:22 | 23.40209 | 113.30885 | 55 ft | 11 kts | 149° |
| 2026-04-30 05:23 | 23.40153 | 113.30928 | 54 ft | 10 kts | 169° |
| 2026-04-30 05:23 | 23.40077 | 113.30910 | 58 ft | 13 kts | 194° |
| 2026-04-30 05:23 | 23.39939 | 113.30873 | 61 ft | 30 kts | 193° |
| 2026-04-30 05:23 | 23.39707 | 113.30811 | 56 ft | 34 kts | 195° |
| 2026-04-30 05:24 | 23.39486 | 113.30750 | 58 ft | 31 kts | 194° |
| 2026-04-30 05:24 | 23.39281 | 113.30696 | 59 ft | 30 kts | 193° |
| 2026-04-30 05:24 | 23.39091 | 113.30642 | 56 ft | 27 kts | 192° |
| 2026-04-30 05:24 | 23.38907 | 113.30594 | 55 ft | 27 kts | 192° |
| 2026-04-30 05:25 | 23.38723 | 113.30543 | 56 ft | 27 kts | 195° |
| 2026-04-30 05:25 | 23.38540 | 113.30492 | 59 ft | 27 kts | 193° |
| 2026-04-30 05:25 | 23.38357 | 113.30443 | 60 ft | 27 kts | 201° |
| 2026-04-30 05:25 | 23.38207 | 113.30402 | 56 ft | 22 kts | 192° |
| 2026-04-30 05:26 | 23.38057 | 113.30363 | 58 ft | 22 kts | 196° |
| 2026-04-30 05:26 | 23.37911 | 113.30329 | 60 ft | 22 kts | 198° |
| 2026-04-30 05:26 | 23.37765 | 113.30283 | 58 ft | 22 kts | 198° |
| 2026-04-30 05:26 | 23.37658 | 113.30279 | 55 ft | 9 kts | 140° |
| 2026-04-30 05:27 | 23.37627 | 113.30336 | 56 ft | 9 kts | 110° |
| 2026-04-30 05:27 | 23.37611 | 113.30407 | 56 ft | 14 kts | 103° |
| 2026-04-30 05:27 | 23.37616 | 113.30541 | 56 ft | 19 kts | 37° |
| 2026-04-30 05:27 | 23.37802 | 113.30600 | 55 ft | 42 kts | 13° |
| 2026-04-30 05:28 | 23.38328 | 113.30737 | 58 ft | 114 kts | 14° |
| 2026-04-30 05:28 | 23.39320 | 113.31004 | 58 ft | 177 kts | 13° |
| 2026-04-30 05:28 | 23.40612 | 113.31361 | 474 ft | 190 kts | 15° |
| 2026-04-30 05:28 | 23.41843 | 113.31715 | 1480 ft | 177 kts | 16° |
| 2026-04-30 05:29 | 23.43055 | 113.32077 | 1952 ft | 190 kts | 15° |
| 2026-04-30 05:29 | 23.44397 | 113.32479 | 2137 ft | 210 kts | 15° |
| 2026-04-30 05:29 | 23.45854 | 113.32913 | 2446 ft | 225 kts | 15° |
| 2026-04-30 05:29 | 23.47376 | 113.33366 | 3028 ft | 229 kts | 14° |
| 2026-04-30 05:30 | 23.48914 | 113.33823 | 3773 ft | 225 kts | 14° |
| 2026-04-30 05:30 | 23.50460 | 113.34283 | 4171 ft | 238 kts | 13° |
| 2026-04-30 05:30 | 23.52077 | 113.34763 | 4631 ft | 246 kts | 13° |
| 2026-04-30 05:30 | 23.53776 | 113.35269 | 5036 ft | 257 kts | 13° |
| 2026-04-30 05:31 | 23.55502 | 113.35787 | 5509 ft | 264 kts | 11° |
| 2026-04-30 05:31 | 23.57310 | 113.36195 | 6069 ft | 267 kts | 7° |
| 2026-04-30 05:31 | 23.59152 | 113.36529 | 6685 ft | 269 kts | 6° |
| 2026-04-30 05:31 | 23.61007 | 113.36869 | 7241 ft | 272 kts | 6° |
| 2026-04-30 05:32 | 23.62887 | 113.37221 | 7772 ft | 276 kts | 6° |
| 2026-04-30 05:32 | 23.64794 | 113.37580 | 8323 ft | 280 kts | 6° |
| 2026-04-30 05:32 | 23.66715 | 113.37946 | 8873 ft | 282 kts | 6° |
| 2026-04-30 05:32 | 23.68656 | 113.38316 | 9427 ft | 285 kts | 6° |
| 2026-04-30 05:33 | 23.70625 | 113.38690 | 9994 ft | 289 kts | 6° |
| 2026-04-30 05:33 | 23.72618 | 113.39071 | 10469 ft | 292 kts | 6° |
| 2026-04-30 05:33 | 23.74621 | 113.39453 | 10907 ft | 300 kts | 6° |
| 2026-04-30 05:33 | 23.76732 | 113.39854 | 11125 ft | 318 kts | 6° |
| 2026-04-30 05:34 | 23.78985 | 113.40281 | 11276 ft | 337 kts | 5° |
| 2026-04-30 05:34 | 23.81345 | 113.40293 | 11368 ft | 346 kts | 343° |
| 2026-04-30 05:34 | 23.83352 | 113.39360 | 11499 ft | 355 kts | 321° |
| 2026-04-30 05:34 | 23.85060 | 113.37389 | 11776 ft | 362 kts | 297° |
| 2026-04-30 05:35 | 23.85904 | 113.34805 | 12280 ft | 364 kts | 277° |
| 2026-04-30 05:35 | 23.86188 | 113.32028 | 12795 ft | 370 kts | 275° |